Time;durP1;ratioP1;P1;durP2;ratioP2;P2;SDS_P1;SDS_P2;PMS_P1;PMS_P2;Temp;Humidity;BMP_temperature;BMP_pressure;BME280_temperature;BME280_humidity;BME280_pressure;Samples;Min_cycle;Max_cycle;Signal;HPM_P1;HPM_P2
2023/01/27 00:00:02;;;;;;;19.67;4.20;;;;;;;3.32;100.00;102301.50;5083554;28;20029;-74
2023/01/27 00:02:27;;;;;;;20.48;4.22;;;;;;;3.31;100.00;102294.47;5081852;28;20056;-74
2023/01/27 00:04:53;;;;;;;19.23;4.32;;;;;;;3.27;100.00;102282.03;5084756;28;20058;-74
2023/01/27 00:07:18;;;;;;;20.23;4.15;;;;;;;3.33;100.00;102292.84;5081123;28;20029;-73
2023/01/27 00:09:44;;;;;;;19.20;4.25;;;;;;;3.24;100.00;102289.69;5083859;28;20043;-73
2023/01/27 00:15:06;;;;;;;24.75;4.88;;;;;;;3.23;100.00;102290.50;5082924;28;20509;-74
2023/01/27 00:17:32;;;;;;;20.60;4.63;;;;;;;3.23;100.00;102290.50;5083475;28;20047;-74
2023/01/27 00:19:58;;;;;;;22.65;4.63;;;;;;;3.21;100.00;102285.19;5081617;28;20040;-74
2023/01/27 00:25:08;;;;;;;22.20;4.55;;;;;;;3.25;100.00;102288.91;5083230;28;20548;-74
2023/01/27 00:27:33;;;;;;;21.70;4.38;;;;;;;3.23;100.00;102288.81;5083032;28;20032;-74
2023/01/27 00:29:58;;;;;;;22.13;4.40;;;;;;;3.25;100.00;102281.06;5081597;28;20033;-74
2023/01/27 00:35:08;;;;;;;20.73;4.47;;;;;;;3.21;100.00;102286.91;5083376;28;20086;-73
2023/01/27 00:37:33;;;;;;;19.35;4.30;;;;;;;3.23;100.00;102301.88;5082720;28;20425;-74
2023/01/27 00:39:58;;;;;;;20.83;4.68;;;;;;;3.19;100.00;102293.75;5081599;28;20040;-73
2023/01/27 00:42:24;;;;;;;20.60;4.40;;;;;;;3.14;100.00;102285.66;5084328;28;20024;-74
2023/01/27 00:47:33;;;;;;;20.02;4.50;;;;;;;3.13;100.00;102290.00;5082340;28;20094;-74
2023/01/27 00:49:59;;;;;;;20.52;4.70;;;;;;;3.11;100.00;102290.69;5083335;28;20036;-73
2023/01/27 00:52:24;;;;;;;19.52;4.50;;;;;;;3.10;100.00;102300.28;5080169;28;20105;-74
2023/01/27 00:54:49;;;;;;;22.42;4.78;;;;;;;3.08;100.00;102290.53;5088126;28;20027;-74
2023/01/27 00:57:15;;;;;;;20.83;4.85;;;;;;;3.10;100.00;102294.13;5085005;28;20032;-73
2023/01/27 00:59:40;;;;;;;20.73;4.47;;;;;;;3.03;100.00;102300.72;5087115;28;20035;-74
2023/01/27 01:02:05;;;;;;;22.58;5.30;;;;;;;3.03;100.00;102297.19;5086224;28;20442;-74
2023/01/27 01:04:31;;;;;;;22.10;5.10;;;;;;;3.03;100.00;102303.34;5085769;28;20032;-80
2023/01/27 01:06:56;;;;;;;22.15;4.93;;;;;;;2.99;100.00;102303.97;5087603;28;20020;-76
2023/01/27 01:09:21;;;;;;;22.30;5.30;;;;;;;3.01;100.00;102301.44;5084338;28;20116;-81
2023/01/27 01:11:47;;;;;;;23.08;5.50;;;;;;;2.97;100.00;102293.44;5087782;28;20031;-76
2023/01/27 01:14:12;;;;;;;20.17;4.95;;;;;;;2.96;100.00;102298.56;5085066;28;20024;-83
2023/01/27 01:16:38;;;;;;;23.35;5.10;;;;;;;2.99;100.00;102297.84;5086085;28;20033;-82
2023/01/27 01:19:03;;;;;;;22.85;4.97;;;;;;;2.93;100.00;102301.00;5086444;28;20048;-80
2023/01/27 01:21:28;;;;;;;22.23;5.35;;;;;;;2.92;100.00;102307.03;5084783;28;20029;-82
2023/01/27 01:23:54;;;;;;;20.77;5.47;;;;;;;2.95;100.00;102309.81;5087612;28;20461;-79
2023/01/27 01:26:19;;;;;;;21.85;5.43;;;;;;;2.94;100.00;102302.78;5084265;28;20024;-80
2023/01/27 01:28:45;;;;;;;18.77;5.20;;;;;;;2.94;100.00;102313.22;5086747;28;20028;-80
2023/01/27 01:31:14;;;;;;;21.77;5.53;;;;;;;2.94;100.00;102315.84;5085074;28;20043;-80
2023/01/27 01:33:39;;;;;;;20.70;5.50;;;;;;;2.97;100.00;102313.41;5086153;28;20483;-83
2023/01/27 01:36:11;;;;;;;21.08;5.40;;;;;;;2.89;100.00;102312.97;5085771;28;20032;-83
2023/01/27 01:38:37;;;;;;;22.23;5.65;;;;;;;2.85;100.00;102308.34;5085531;28;20044;-82
2023/01/27 01:41:03;;;;;;;22.88;5.35;;;;;;;2.88;100.00;102318.97;5086317;28;20474;-79
2023/01/27 01:43:29;;;;;;;20.92;5.78;;;;;;;2.90;100.00;102322.59;5084379;28;20031;-82
2023/01/27 01:45:56;;;;;;;22.58;5.85;;;;;;;2.85;100.00;102315.31;5087175;28;20522;-73
2023/01/27 01:48:32;;;;;;;22.48;6.05;;;;;;;2.85;100.00;102317.91;5083838;28;20055;-74
2023/01/27 01:51:09;;;;;;;22.77;6.10;;;;;;;2.81;100.00;102322.06;5084268;28;20021;-74
2023/01/27 01:53:50;;;;;;;21.42;6.25;;;;;;;2.82;100.00;102320.34;5085533;28;20027;-74
2023/01/27 01:56:20;;;;;;;22.85;6.30;;;;;;;2.85;100.00;102321.41;5086383;28;20085;-74
2023/01/27 01:58:47;;;;;;;21.02;6.70;;;;;;;2.79;100.00;102321.94;5083794;28;20029;-74
2023/01/27 02:01:14;;;;;;;23.77;6.20;;;;;;;2.79;100.00;102321.94;5086049;28;20056;-74
2023/01/27 02:03:43;;;;;;;21.15;6.22;;;;;;;2.78;100.00;102322.78;5084645;28;20034;-74
2023/01/27 02:06:10;;;;;;;22.85;6.93;;;;;;;2.78;100.00;102317.56;5084710;28;20024;-74
2023/01/27 02:08:41;;;;;;;21.92;6.80;;;;;;;2.76;100.00;102324.38;5085395;28;20032;-74
2023/01/27 02:11:09;;;;;;;21.73;6.47;;;;;;;2.75;100.00;102319.06;5084845;28;20225;-74
2023/01/27 02:13:36;;;;;;;22.08;6.70;;;;;;;2.76;100.00;102323.50;5085174;28;20067;-73
2023/01/27 02:16:01;;;;;;;22.17;7.03;;;;;;;2.73;100.00;102324.19;5084179;28;20029;-74
2023/01/27 02:18:27;;;;;;;22.60;6.70;;;;;;;2.74;100.00;102318.19;5085982;28;20132;-73
2023/01/27 02:20:53;;;;;;;21.65;6.38;;;;;;;2.72;100.00;102318.91;5083137;28;20486;-73
2023/01/27 02:23:18;;;;;;;20.83;6.60;;;;;;;2.73;100.00;102318.97;5086469;28;20043;-73
2023/01/27 02:25:54;;;;;;;22.50;6.80;;;;;;;2.76;100.00;102319.16;5083961;28;20036;-79
2023/01/27 02:28:19;;;;;;;21.10;6.47;;;;;;;2.68;100.00;102319.50;5083369;28;20028;-78
2023/01/27 02:30:45;;;;;;;22.23;7.20;;;;;;;2.66;100.00;102316.81;5086003;28;20467;-75
2023/01/27 02:33:12;;;;;;;21.92;6.88;;;;;;;2.67;100.00;102325.56;5084470;28;20035;-81
2023/01/27 02:36:02;;;;;;;22.15;7.13;;;;;;;2.67;100.00;102329.06;5083423;28;20025;-75
2023/01/27 02:38:33;;;;;;;21.77;6.93;;;;;;;2.66;100.00;102335.09;5083119;28;20081;-81
2023/01/27 02:41:05;;;;;;;22.13;6.90;;;;;;;2.63;100.00;102334.91;5085598;28;20106;-82
2023/01/27 02:43:30;;;;;;;22.98;7.13;;;;;;;2.67;100.00;102343.84;5083550;28;20059;-79
2023/01/27 02:45:55;;;;;;;20.67;7.05;;;;;;;2.65;100.00;102335.94;5085790;28;20063;-76
2023/01/27 02:48:21;;;;;;;22.02;7.07;;;;;;;2.67;100.00;102338.63;5082467;28;20028;-83
2023/01/27 02:50:46;;;;;;;21.58;6.85;;;;;;;2.67;100.00;102339.50;5085586;28;20040;-81
2023/01/27 02:53:11;;;;;;;21.85;7.05;;;;;;;2.62;100.00;102343.53;5083498;28;20047;-76
2023/01/27 02:55:37;;;;;;;22.08;7.30;;;;;;;2.59;100.00;102336.44;5082715;28;20039;-75
2023/01/27 02:58:02;;;;;;;23.88;7.88;;;;;;;2.63;100.00;102342.75;5084903;28;20036;-80
2023/01/27 03:00:28;;;;;;;21.42;7.57;;;;;;;2.61;100.00;102339.16;5082975;28;20039;-79
2023/01/27 03:02:53;;;;;;;23.27;8.07;;;;;;;2.59;100.00;102335.53;5085629;28;20039;-80
2023/01/27 03:05:18;;;;;;;21.88;7.75;;;;;;;2.58;100.00;102334.63;5082445;28;20040;-82
2023/01/27 03:07:44;;;;;;;21.73;7.88;;;;;;;2.60;100.00;102337.34;5084749;28;20112;-75
2023/01/27 03:10:09;;;;;;;21.40;7.47;;;;;;;2.60;100.00;102345.16;5082167;28;20040;-74
2023/01/27 03:12:35;;;;;;;22.08;7.90;;;;;;;2.59;100.00;102353.81;5083588;28;20025;-74
2023/01/27 03:20:28;;;;;;;23.45;8.60;;;;;;;2.54;100.00;102347.41;5082688;28;20114;-73
2023/01/27 03:22:54;;;;;;;23.15;8.27;;;;;;;2.52;100.00;102343.78;5085541;28;20474;-73
2023/01/27 03:25:19;;;;;;;24.77;8.70;;;;;;;2.53;100.00;102348.22;5081784;28;20360;-73
2023/01/27 03:27:45;;;;;;;22.50;9.07;;;;;;;2.50;100.00;102345.41;5084388;28;20040;-74
2023/01/27 03:30:11;;;;;;;22.35;8.80;;;;;;;2.49;100.00;102351.44;5081942;28;20069;-73
2023/01/27 03:32:36;;;;;;;23.70;9.10;;;;;;;2.50;100.00;102348.03;5083137;28;20028;-74
2023/01/27 03:35:02;;;;;;;24.45;9.63;;;;;;;2.53;100.00;102361.28;5084182;28;20494;-74
2023/01/27 03:48:34;;;;;;;28.17;10.00;;;;;;;2.53;100.00;102371.72;5083005;28;20051;-74
2023/01/27 03:51:02;;;;;;;23.33;9.57;;;;;;;2.53;100.00;102379.53;5084191;28;20059;-74
2023/01/27 03:53:27;;;;;;;24.98;9.32;;;;;;;2.50;100.00;102371.53;5081618;28;20112;-74
2023/01/27 03:55:53;;;;;;;25.92;9.95;;;;;;;2.49;100.00;102377.56;5084818;28;20119;-74
2023/01/27 03:58:20;;;;;;;24.92;10.85;;;;;;;2.48;100.00;102375.75;5081514;28;20028;-74
2023/01/27 04:00:51;;;;;;;25.40;10.38;;;;;;;2.49;100.00;102374.94;5083915;28;20042;-74
2023/01/27 04:08:48;;;;;;;25.80;10.88;;;;;;;2.47;100.00;102379.19;5081854;28;20113;-74
2023/01/27 04:14:00;;;;;;;26.20;11.40;;;;;;;2.45;100.00;102381.69;5081502;28;20044;-74
2023/01/27 04:16:27;;;;;;;25.80;10.52;;;;;;;2.46;100.00;102385.19;5084372;28;20024;-74
2023/01/27 04:18:54;;;;;;;26.92;11.07;;;;;;;2.44;100.00;102378.16;5080934;28;20049;-74
2023/01/27 04:21:19;;;;;;;27.25;11.13;;;;;;;2.42;100.00;102374.56;5084361;28;20409;-83
2023/01/27 04:23:44;;;;;;;26.60;11.18;;;;;;;2.41;100.00;102375.38;5081776;28;20020;-78
2023/01/27 04:26:10;;;;;;;26.30;11.15;;;;;;;2.44;100.00;102378.16;5082962;28;20120;-77
2023/01/27 04:28:36;;;;;;;27.58;11.48;;;;;;;2.41;100.00;102380.59;5082673;28;20115;-76
2023/01/27 04:31:01;;;;;;;28.55;12.27;;;;;;;2.41;100.00;102377.97;5081869;28;20086;-76
2023/01/27 04:33:26;;;;;;;28.25;12.10;;;;;;;2.42;100.00;102374.56;5084386;28;20111;-76
2023/01/27 04:35:52;;;;;;;27.38;11.75;;;;;;;2.40;100.00;102375.28;5081059;28;20433;-82
2023/01/27 04:38:17;;;;;;;26.55;11.88;;;;;;;2.41;100.00;102387.53;5083667;28;20535;-75
2023/01/27 04:40:43;;;;;;;29.35;12.88;;;;;;;2.45;100.00;102389.53;5082081;28;20052;-76
2023/01/27 04:43:08;;;;;;;29.25;13.23;;;;;;;2.41;100.00;102390.13;5082489;28;20028;-83
2023/01/27 04:45:34;;;;;;;28.08;12.82;;;;;;;2.42;100.00;102394.56;5083046;28;20024;-75
2023/01/27 04:47:59;;;;;;;28.25;13.20;;;;;;;2.39;100.00;102390.03;5081417;28;20036;-75
2023/01/27 04:50:24;;;;;;;27.95;13.10;;;;;;;2.36;100.00;102395.06;5084254;28;20028;-76
2023/01/27 04:52:50;;;;;;;28.42;13.55;;;;;;;2.37;100.00;102391.63;5080846;28;20124;-81
2023/01/27 04:55:15;;;;;;;30.02;14.32;;;;;;;2.36;100.00;102394.16;5083525;28;20078;-75
2023/01/27 04:57:40;;;;;;;32.28;13.90;;;;;;;2.36;100.00;102400.28;5082073;28;20043;-75
2023/01/27 05:00:07;;;;;;;27.23;12.88;;;;;;;2.35;100.00;102402.81;5082084;28;20115;-81
2023/01/27 05:02:32;;;;;;;28.83;13.77;;;;;;;2.37;100.00;102401.19;5083195;28;20381;-80
2023/01/27 05:04:57;;;;;;;27.73;13.68;;;;;;;2.34;100.00;102395.78;5080686;28;20029;-75
2023/01/27 05:07:23;;;;;;;27.50;13.75;;;;;;;2.33;100.00;102407.00;5084366;28;20036;-81
2023/01/27 05:09:48;;;;;;;28.38;12.95;;;;;;;2.34;100.00;102406.22;5080841;28;20028;-74
2023/01/27 05:12:14;;;;;;;28.10;13.23;;;;;;;2.34;100.00;102407.09;5082819;28;20039;-76
2023/01/27 05:14:39;;;;;;;26.75;12.75;;;;;;;2.34;100.00;102420.16;5082450;28;20165;-75
2023/01/27 05:17:05;;;;;;;26.70;12.43;;;;;;;2.36;100.00;102415.97;5081585;28;20509;-74
2023/01/27 05:19:30;;;;;;;27.33;13.05;;;;;;;2.34;100.00;102411.44;5083297;28;20043;-80
2023/01/27 05:21:55;;;;;;;26.83;12.43;;;;;;;2.37;100.00;102420.34;5080725;28;20036;-78
2023/01/27 05:24:21;;;;;;;26.10;12.70;;;;;;;2.36;100.00;102420.25;5083678;28;20059;-81
2023/01/27 05:26:46;;;;;;;27.08;13.13;;;;;;;2.36;100.00;102418.56;5081278;28;20036;-81
2023/01/27 05:29:11;;;;;;;27.40;13.38;;;;;;;2.36;100.00;102426.41;5082613;28;20021;-81
2023/01/27 05:31:37;;;;;;;27.90;13.68;;;;;;;2.38;100.00;102422.16;5082336;28;20060;-81
2023/01/27 05:34:02;;;;;;;26.80;12.88;;;;;;;2.39;100.00;102430.91;5081260;28;20094;-78
2023/01/27 05:36:29;;;;;;;26.70;13.27;;;;;;;2.37;100.00;102425.56;5083619;28;20024;-81
2023/01/27 05:38:54;;;;;;;26.20;13.25;;;;;;;2.36;100.00;102430.69;5080304;28;20032;-74
2023/01/27 05:41:21;;;;;;;25.80;13.10;;;;;;;2.34;100.00;102441.03;5086907;28;20024;-74
2023/01/27 05:43:51;;;;;;;26.40;12.52;;;;;;;2.33;100.00;102436.66;5084484;28;20421;-74
2023/01/27 05:46:19;;;;;;;25.52;12.45;;;;;;;2.34;100.00;102437.53;5086476;28;20542;-74
2023/01/27 05:48:47;;;;;;;24.75;12.10;;;;;;;2.37;100.00;102436.00;5084643;28;20086;-73
2023/01/27 05:51:13;;;;;;;24.90;12.63;;;;;;;2.33;100.00;102441.88;5086018;28;20537;-74
2023/01/27 05:53:39;;;;;;;24.80;12.20;;;;;;;2.33;100.00;102440.94;5085304;28;20073;-74
2023/01/27 05:56:05;;;;;;;25.77;12.90;;;;;;;2.33;100.00;102443.56;5084732;28;20041;-74
2023/01/27 05:58:31;;;;;;;26.23;12.73;;;;;;;2.31;100.00;102442.56;5086699;28;20470;-74
2023/01/27 06:01:06;;;;;;;26.42;12.43;;;;;;;2.34;100.00;102438.44;5083321;28;20033;-74
2023/01/27 06:03:31;;;;;;;25.13;12.55;;;;;;;2.34;100.00;102442.75;5084142;28;20032;-74
2023/01/27 06:05:57;;;;;;;26.33;12.82;;;;;;;2.38;100.00;102456.09;5087132;28;20371;-74
2023/01/27 06:08:23;;;;;;;24.05;11.40;;;;;;;2.34;100.00;102445.38;5083307;28;20395;-74
2023/01/27 06:10:50;;;;;;;25.80;12.52;;;;;;;2.33;100.00;102449.69;5086354;28;20463;-74
2023/01/27 06:13:16;;;;;;;26.05;12.50;;;;;;;2.38;100.00;102450.88;5084270;28;20032;-74
2023/01/27 06:15:46;;;;;;;25.85;13.05;;;;;;;2.34;100.00;102453.19;5085024;28;20124;-74
2023/01/27 06:18:12;;;;;;;24.67;11.73;;;;;;;2.32;100.00;102450.50;5084318;28;20063;-76
2023/01/27 06:20:38;;;;;;;25.45;11.95;;;;;;;2.33;100.00;102454.91;5083930;28;20040;-75
2023/01/27 06:23:05;;;;;;;25.35;11.90;;;;;;;2.35;100.00;102455.91;5091888;28;20036;-74
2023/01/27 06:25:34;;;;;;;25.23;12.32;;;;;;;2.34;100.00;102459.31;5090118;28;20020;-74
2023/01/27 06:27:59;;;;;;;24.23;12.32;;;;;;;2.36;100.00;102468.16;5094118;28;20048;-74
2023/01/27 06:30:24;;;;;;;26.38;13.02;;;;;;;2.36;100.00;102468.16;5094114;28;20411;-75
2023/01/27 06:32:50;;;;;;;24.58;12.02;;;;;;;2.37;100.00;102464.72;5093367;28;20421;-74
2023/01/27 06:35:15;;;;;;;24.20;11.52;;;;;;;2.38;100.00;102458.72;5094088;28;20024;-75
2023/01/27 06:37:41;;;;;;;25.17;12.20;;;;;;;2.36;100.00;102462.00;5093345;28;20077;-74
2023/01/27 06:40:07;;;;;;;24.38;11.65;;;;;;;2.39;100.00;102467.47;5094003;28;20036;-75
2023/01/27 06:42:32;;;;;;;24.13;11.20;;;;;;;2.38;100.00;102466.53;5092244;28;20028;-76
2023/01/27 06:44:57;;;;;;;23.58;11.38;;;;;;;2.42;100.00;102470.25;5093252;28;20118;-80
2023/01/27 06:47:23;;;;;;;23.27;11.05;;;;;;;2.42;100.00;102472.88;5093705;28;20031;-75
2023/01/27 06:49:48;;;;;;;23.40;11.00;;;;;;;2.42;100.00;102465.94;5093694;28;20031;-77
2023/01/27 06:52:14;;;;;;;24.35;11.07;;;;;;;2.43;100.00;102464.22;5092991;28;20551;-77
2023/01/27 06:54:39;;;;;;;23.40;10.98;;;;;;;2.41;100.00;102466.72;5093454;28;20028;-78
2023/01/27 06:57:04;;;;;;;23.17;11.32;;;;;;;2.42;100.00;102468.53;5093101;28;20533;-79
2023/01/27 06:59:30;;;;;;;24.13;11.15;;;;;;;2.41;100.00;102469.34;5093443;28;20371;-76
2023/01/27 07:01:55;;;;;;;23.77;11.35;;;;;;;2.48;100.00;102472.38;5092945;28;20386;-78
2023/01/27 07:04:21;;;;;;;23.10;10.45;;;;;;;2.46;100.00;102472.22;5093268;28;20513;-78
2023/01/27 07:06:46;;;;;;;22.95;10.80;;;;;;;2.46;100.00;102473.94;5093055;28;20372;-77
2023/01/27 07:09:11;;;;;;;23.75;10.82;;;;;;;2.44;100.00;102477.34;5093029;28;20020;-78
2023/01/27 07:11:37;;;;;;;23.05;10.55;;;;;;;2.43;100.00;102475.56;5092632;28;20107;-78
2023/01/27 07:14:02;;;;;;;22.63;10.60;;;;;;;2.44;100.00;102466.91;5091298;28;20051;-76
2023/01/27 07:16:28;;;;;;;25.67;11.77;;;;;;;2.42;100.00;102475.47;5092959;28;20036;-74
2023/01/27 07:18:53;;;;;;;23.70;11.00;;;;;;;2.44;100.00;102481.69;5092584;28;20044;-74
2023/01/27 07:21:18;;;;;;;22.52;9.75;;;;;;;2.44;100.00;102472.13;5091941;28;20129;-74
2023/01/27 07:23:44;;;;;;;22.00;9.80;;;;;;;2.44;100.00;102477.34;5092683;28;20111;-74
2023/01/27 07:26:09;;;;;;;22.75;10.35;;;;;;;2.47;100.00;102476.66;5093123;28;20124;-74
2023/01/27 07:28:34;;;;;;;22.65;10.27;;;;;;;2.45;100.00;102478.28;5092962;28;20028;-74
2023/01/27 07:31:01;;;;;;;21.17;8.98;;;;;;;2.45;100.00;102478.28;5092363;28;20393;-73
2023/01/27 07:33:27;;;;;;;21.10;9.07;;;;;;;2.47;100.00;102486.22;5091699;28;20031;-75
2023/01/27 07:35:53;;;;;;;20.95;8.48;;;;;;;2.46;100.00;102485.28;5092470;28;20471;-73
2023/01/27 07:38:18;;;;;;;20.90;8.50;;;;;;;2.49;100.00;102485.50;5092550;28;20050;-74
2023/01/27 07:40:43;;;;;;;21.60;9.48;;;;;;;2.47;100.00;102481.88;5092435;28;20028;-75
2023/01/27 07:43:09;;;;;;;20.38;8.07;;;;;;;2.52;100.00;102488.31;5092490;28;20550;-74
2023/01/27 07:45:35;;;;;;;20.65;8.27;;;;;;;2.54;100.00;102489.28;5091670;28;20039;-74
2023/01/27 07:48:02;;;;;;;20.67;8.55;;;;;;;2.54;100.00;102489.28;5091175;28;20047;-74
2023/01/27 07:50:28;;;;;;;23.13;11.32;;;;;;;2.57;100.00;102499.03;5092486;28;20024;-74
2023/01/27 07:52:53;;;;;;;26.77;13.13;;;;;;;2.59;100.00;102492.19;5092010;28;20118;-75
2023/01/27 07:55:19;;;;;;;26.80;14.95;;;;;;;2.61;100.00;102506.28;5092470;28;20065;-77
2023/01/27 07:57:44;;;;;;;26.15;13.90;;;;;;;2.59;100.00;102503.56;5092207;28;20056;-75
2023/01/27 08:00:14;;;;;;;26.35;13.00;;;;;;;2.63;100.00;102504.66;5091942;28;20059;-77
2023/01/27 08:02:39;;;;;;;25.20;13.02;;;;;;;2.62;100.00;102502.81;5081045;28;20428;-78
2023/01/27 08:05:05;;;;;;;24.85;13.00;;;;;;;2.64;100.00;102503.84;5081054;28;20013;-74
2023/01/27 08:07:31;;;;;;;23.77;11.32;;;;;;;2.63;100.00;102503.75;5086705;28;20093;-76
2023/01/27 08:09:56;;;;;;;24.20;11.57;;;;;;;2.62;100.00;102492.38;5086316;28;20012;-80
2023/01/27 08:12:21;;;;;;;21.38;9.52;;;;;;;2.65;100.00;102492.59;5088058;28;20375;-80
2023/01/27 08:14:47;;;;;;;20.10;8.30;;;;;;;2.67;100.00;102501.44;5091710;28;20428;-80
2023/01/27 08:17:12;;;;;;;21.15;8.43;;;;;;;2.67;100.00;102506.66;5092080;28;20078;-77
2023/01/27 08:19:37;;;;;;;20.33;7.93;;;;;;;2.68;100.00;102505.84;5072987;28;20080;-78
2023/01/27 08:22:03;;;;;;;19.83;8.05;;;;;;;2.68;100.00;102504.94;5085952;28;20040;-80
2023/01/27 08:24:28;;;;;;;20.98;8.65;;;;;;;2.68;100.00;102507.53;5089011;28;20085;-78
2023/01/27 08:26:54;;;;;;;20.83;8.60;;;;;;;2.71;100.00;102513.88;5092083;28;20085;-79
2023/01/27 08:29:19;;;;;;;20.70;8.80;;;;;;;2.70;100.00;102511.16;5088468;28;20024;-77
2023/01/27 08:31:45;;;;;;;20.83;8.65;;;;;;;2.72;100.00;102510.47;5089846;28;20056;-79
2023/01/27 08:34:10;;;;;;;20.85;8.95;;;;;;;2.71;100.00;102516.50;5090542;28;20434;-79
2023/01/27 08:36:36;;;;;;;20.83;8.98;;;;;;;2.76;100.00;102511.53;5082023;28;20039;-79
2023/01/27 08:39:01;;;;;;;21.38;9.05;;;;;;;2.76;100.00;102522.00;5090547;28;20031;-77
2023/01/27 08:41:27;;;;;;;20.50;8.25;;;;;;;2.74;100.00;102519.28;5091865;28;20063;-81
2023/01/27 08:43:53;;;;;;;21.02;8.52;;;;;;;2.79;100.00;102520.47;5090487;28;20024;-81
2023/01/27 08:46:19;;;;;;;19.67;8.50;;;;;;;2.81;100.00;102522.28;5091549;28;20478;-79
2023/01/27 08:48:45;;;;;;;20.08;8.32;;;;;;;2.83;100.00;102518.06;5090166;28;20024;-81
2023/01/27 08:51:12;;;;;;;19.75;8.20;;;;;;;2.85;100.00;102537.34;5091872;28;20047;-82
2023/01/27 08:53:38;;;;;;;20.02;8.23;;;;;;;2.86;100.00;102529.59;5091566;28;20028;-78
2023/01/27 08:56:07;;;;;;;20.35;8.57;;;;;;;2.88;100.00;102538.44;5091686;28;20497;-81
2023/01/27 08:58:33;;;;;;;20.73;8.60;;;;;;;2.92;100.00;102545.66;5091298;28;20022;-77
2023/01/27 09:01:03;;;;;;;20.02;8.10;;;;;;;2.92;100.00;102548.25;5091978;28;20032;-82
2023/01/27 09:03:29;;;;;;;20.73;8.88;;;;;;;2.94;100.00;102554.50;5091257;28;20024;-82
2023/01/27 09:05:55;;;;;;;20.30;8.32;;;;;;;2.95;100.00;102550.19;5091660;28;20032;-76
2023/01/27 09:08:21;;;;;;;20.42;8.48;;;;;;;2.96;100.00;102557.22;5080029;28;20028;-78
2023/01/27 09:10:46;;;;;;;20.27;8.20;;;;;;;2.97;100.00;102569.44;5084570;28;20032;-78
2023/01/27 09:13:11;;;;;;;20.30;8.32;;;;;;;2.98;100.00;102547.75;5082199;28;20523;-81
2023/01/27 09:15:37;;;;;;;19.60;8.00;;;;;;;3.01;100.00;102555.78;5085230;28;20515;-81
2023/01/27 09:18:03;;;;;;;19.90;8.32;;;;;;;3.04;100.00;102563.81;5084444;28;20028;-78
2023/01/27 09:20:30;;;;;;;19.23;7.32;;;;;;;3.10;100.00;102556.38;5085364;28;20132;-77
2023/01/27 09:22:55;;;;;;;19.38;7.60;;;;;;;3.21;100.00;102558.75;5086460;28;20024;-78
2023/01/27 09:25:21;;;;;;;18.98;7.55;;;;;;;3.29;100.00;102568.88;5085243;28;20032;-78
2023/01/27 09:27:47;;;;;;;19.27;7.05;;;;;;;3.34;100.00;102555.19;5085207;28;20421;-80
2023/01/27 09:30:14;;;;;;;19.40;7.45;;;;;;;3.39;100.00;102554.63;5089948;28;20580;-78
2023/01/27 09:32:40;;;;;;;18.88;7.43;;;;;;;3.44;100.00;102568.00;5095175;28;20126;-76
2023/01/27 09:35:06;;;;;;;19.40;7.05;;;;;;;3.48;100.00;102568.28;5094828;28;20489;-77
2023/01/27 09:37:37;;;;;;;19.20;7.38;;;;;;;3.52;100.00;102568.47;5094804;28;20085;-77
2023/01/27 09:40:10;;;;;;;19.30;6.88;;;;;;;3.60;100.00;102572.44;5094465;28;20028;-77
2023/01/27 09:42:48;;;;;;;18.88;7.28;;;;;;;3.61;100.00;102577.78;5094852;28;20016;-77
2023/01/27 09:45:23;;;;;;;18.30;6.80;;;;;;;3.61;100.00;102571.63;5085071;28;20530;-76
2023/01/27 09:48:19;;;;;;;18.60;7.00;;;;;;;3.65;100.00;102574.50;5082199;28;20404;-76
2023/01/27 09:50:59;;;;;;;18.30;6.57;;;;;;;3.67;100.00;102577.25;5086732;28;20024;-76
2023/01/27 09:53:28;;;;;;;18.67;6.72;;;;;;;3.70;100.00;102573.88;5094566;28;20379;-75
2023/01/27 09:55:56;;;;;;;18.70;6.97;;;;;;;3.71;100.00;102580.94;5092525;28;20096;-76
2023/01/27 09:59:05;;;;;;;18.67;6.20;;;;;;;3.67;100.00;102579.84;5094056;28;20382;-75
2023/01/27 10:01:33;;;;;;;18.08;6.47;;;;;;;3.66;100.00;102584.16;5091284;28;20060;-74
2023/01/27 10:04:30;;;;;;;17.92;6.20;;;;;;;3.65;100.00;102584.06;5093962;28;20055;-75
2023/01/27 10:07:25;;;;;;;18.85;6.75;;;;;;;3.64;100.00;102590.09;5091628;28;20036;-75
2023/01/27 10:09:59;;;;;;;18.13;6.45;;;;;;;3.60;100.00;102598.59;5092860;28;20027;-75
2023/01/27 10:12:47;;;;;;;17.42;6.05;;;;;;;3.59;100.00;102591.56;5091330;28;20366;-75
2023/01/27 10:15:36;;;;;;;18.15;6.35;;;;;;;3.66;100.00;102592.00;5092790;28;20370;-75
2023/01/27 10:18:20;;;;;;;18.48;6.57;;;;;;;3.70;100.00;102595.72;5094352;28;20024;-75
2023/01/27 10:21:00;;;;;;;17.98;6.20;;;;;;;3.74;100.00;102592.50;5093575;28;20506;-76
2023/01/27 10:23:48;;;;;;;17.65;6.40;;;;;;;3.90;100.00;102588.16;5090574;28;20035;-76
2023/01/27 10:26:27;;;;;;;17.58;6.10;;;;;;;4.10;100.00;102586.72;5092065;28;20034;-74
2023/01/27 10:29:15;;;;;;;18.05;6.55;;;;;;;4.24;100.00;102577.03;5094319;28;20027;-75
2023/01/27 10:31:55;;;;;;;18.35;6.50;;;;;;;4.29;100.00;102580.84;5084344;28;20104;-82
2023/01/27 10:34:31;;;;;;;17.10;6.10;;;;;;;4.27;100.00;102574.63;5084034;28;20020;-76
2023/01/27 10:37:26;;;;;;;17.35;5.90;;;;;;;4.26;100.00;102576.31;5085969;28;20024;-78
2023/01/27 10:40:11;;;;;;;18.27;6.18;;;;;;;4.24;100.00;102579.66;5085193;28;20032;-84
2023/01/27 10:42:40;;;;;;;19.45;6.68;;;;;;;4.17;100.00;102574.06;5083121;28;20017;-83
2023/01/27 10:45:38;;;;;;;17.83;6.00;;;;;;;4.14;100.00;102573.91;5085882;28;20059;-80
2023/01/27 10:48:29;;;;;;;17.90;6.43;;;;;;;4.04;100.00;102575.91;5082646;28;20043;-76
2023/01/27 10:51:12;;;;;;;18.27;6.65;;;;;;;4.11;100.00;102578.97;5085603;28;20036;-80
2023/01/27 10:53:42;;;;;;;;;;;;;;;4.25;100.00;102581.47;5083559;28;20166;-74
2023/01/27 10:56:18;;;;;;;19.42;6.88;;;;;;;4.17;100.00;102575.81;5085339;28;20011;-74
2023/01/27 10:59:10;;;;;;;18.40;6.45;;;;;;;4.16;100.00;102580.09;5083605;28;20029;-74
2023/01/27 11:01:42;;;;;;;18.95;6.60;;;;;;;4.09;100.00;102577.97;5082551;28;20059;-74
2023/01/27 11:04:15;;;;;;;18.10;6.50;;;;;;;4.05;100.00;102569.84;5085246;28;20028;-74
2023/01/27 11:06:42;;;;;;;18.80;6.25;;;;;;;4.03;100.00;102566.25;5083299;28;20031;-74
2023/01/27 11:09:30;;;;;;;18.25;6.47;;;;;;;4.00;100.00;102564.34;5085062;28;20039;-74
2023/01/27 11:12:01;;;;;;;17.83;6.00;;;;;;;3.89;100.00;102568.94;5085341;28;20024;-75
2023/01/27 11:14:47;;;;;;;17.83;6.10;;;;;;;3.92;100.00;102574.38;5082452;28;20028;-74
2023/01/27 11:17:19;;;;;;;19.05;6.00;;;;;;;3.82;100.00;102566.78;5083225;28;20032;-74
2023/01/27 11:19:47;;;;;;;17.92;6.20;;;;;;;3.75;100.00;102575.06;5083941;28;20065;-74
2023/01/27 11:22:46;;;;;;;17.10;6.13;;;;;;;3.80;100.00;102561.47;5083130;28;20485;-74
2023/01/27 11:25:32;;;;;;;17.70;5.70;;;;;;;3.70;100.00;102566.97;5074322;28;20042;-74
2023/01/27 11:28:16;;;;;;;17.77;5.60;;;;;;;3.68;100.00;102568.56;5085024;28;20024;-74
2023/01/27 11:30:53;;;;;;;17.45;6.18;;;;;;;3.68;100.00;102563.31;5082846;28;20028;-75
2023/01/27 11:33:33;;;;;;;18.25;6.30;;;;;;;3.65;100.00;102565.75;5083388;28;20359;-75
2023/01/27 11:35:58;;;;;;;17.95;6.03;;;;;;;3.65;100.00;102574.50;5085222;28;20443;-75
2023/01/27 11:38:24;;;;;;;18.75;6.40;;;;;;;3.75;100.00;102575.06;5081924;28;20036;-74
2023/01/27 11:40:51;;;;;;;17.65;6.38;;;;;;;3.80;100.00;102574.53;5084001;28;20043;-75
2023/01/27 11:43:24;;;;;;;18.30;5.97;;;;;;;3.94;100.00;102571.84;5083545;28;20032;-74
2023/01/27 11:45:56;;;;;;;18.67;6.30;;;;;;;4.01;100.00;102564.44;5083570;28;20021;-75
2023/01/27 11:48:21;;;;;;;17.40;6.25;;;;;;;4.29;100.00;102552.94;5082571;28;20107;-75
2023/01/27 11:50:47;;;;;;;19.20;7.93;;;;;;;4.67;100.00;102555.91;5083167;28;20119;-74
2023/01/27 11:53:15;;;;;;;18.58;6.90;;;;;;;4.91;100.00;102558.09;5083975;28;20024;-75
2023/01/27 11:55:54;;;;;;;18.42;6.65;;;;;;;4.94;100.00;102555.66;5082136;28;20031;-74